sensor_id;sensor_type;location;lat;lon;timestamp;pressure;altitude;pressure_sealevel;temperature;humidity
43312;BME280;30041;48.300;16.352;2022-09-03T00:00:13;99735.31;;;24.40;38.58
43312;BME280;30041;48.300;16.352;2022-09-03T00:02:40;99731.53;;;24.41;38.64
43312;BME280;30041;48.300;16.352;2022-09-03T00:05:09;99727.19;;;24.40;38.79
43312;BME280;30041;48.300;16.352;2022-09-03T00:08:08;99736.94;;;24.41;38.42
43312;BME280;30041;48.300;16.352;2022-09-03T00:13:24;99733.44;;;24.41;38.74
43312;BME280;30041;48.300;16.352;2022-09-03T00:15:52;99730.72;;;24.41;38.69
43312;BME280;30041;48.300;16.352;2022-09-03T00:18:23;99734.22;;;24.41;38.68
43312;BME280;30041;48.300;16.352;2022-09-03T00:20:55;99729.63;;;24.42;38.69
43312;BME280;30041;48.300;16.352;2022-09-03T00:23:24;99728.56;;;24.43;38.55
43312;BME280;30041;48.300;16.352;2022-09-03T00:26:19;99734.00;;;24.43;38.82
43312;BME280;30041;48.300;16.352;2022-09-03T00:28:56;99730.75;;;24.46;38.67
43312;BME280;30041;48.300;16.352;2022-09-03T00:31:35;99731.84;;;24.45;38.49
43312;BME280;30041;48.300;16.352;2022-09-03T00:34:22;99734.56;;;24.45;38.68
43312;BME280;30041;48.300;16.352;2022-09-03T00:36:49;99732.09;;;24.43;38.81
43312;BME280;30041;48.300;16.352;2022-09-03T00:39:17;99731.84;;;24.45;38.47
43312;BME280;30041;48.300;16.352;2022-09-03T00:47:23;99726.44;;;24.45;38.52
43312;BME280;30041;48.300;16.352;2022-09-03T00:50:08;99730.75;;;24.46;38.43
43312;BME280;30041;48.300;16.352;2022-09-03T00:58:12;99731.84;;;24.45;38.59
43312;BME280;30041;48.300;16.352;2022-09-03T01:00:41;99724.53;;;24.45;38.59
43312;BME280;30041;48.300;16.352;2022-09-03T01:03:22;99722.88;;;24.44;38.33
43312;BME280;30041;48.300;16.352;2022-09-03T01:08:34;99727.25;;;24.45;38.29
43312;BME280;30041;48.300;16.352;2022-09-03T01:11:35;99733.72;;;24.44;38.24
43312;BME280;30041;48.300;16.352;2022-09-03T01:14:25;99735.38;;;24.45;38.61
43312;BME280;30041;48.300;16.352;2022-09-03T01:20:06;99741.28;;;24.42;38.60
43312;BME280;30041;48.300;16.352;2022-09-03T01:25:48;99747.53;;;24.43;38.57
43312;BME280;30041;48.300;16.352;2022-09-03T01:28:26;99749.16;;;24.44;38.49
43312;BME280;30041;48.300;16.352;2022-09-03T01:33:48;99749.16;;;24.44;38.55
43312;BME280;30041;48.300;16.352;2022-09-03T01:37:00;99745.88;;;24.42;38.63
43312;BME280;30041;48.300;16.352;2022-09-03T01:39:12;99747.53;;;24.43;38.47
43312;BME280;30041;48.300;16.352;2022-09-03T01:56:07;99746.81;;;24.48;38.08
43312;BME280;30041;48.300;16.352;2022-09-03T01:58:55;99737.25;;;24.45;38.21
43312;BME280;30041;48.300;16.352;2022-09-03T02:01:44;99725.34;;;24.46;38.00
43312;BME280;30041;48.300;16.352;2022-09-03T02:04:22;99737.75;;;24.42;38.21
43312;BME280;30041;48.300;16.352;2022-09-03T02:06:58;99737.50;;;24.43;37.94
43312;BME280;30041;48.300;16.352;2022-09-03T02:09:24;99738.06;;;24.45;38.19
43312;BME280;30041;48.300;16.352;2022-09-03T02:12:13;99737.25;;;24.45;38.24
43312;BME280;30041;48.300;16.352;2022-09-03T02:14:40;99744.31;;;24.46;37.95
43312;BME280;30041;48.300;16.352;2022-09-03T02:17:07;99735.38;;;24.45;38.22
43312;BME280;30041;48.300;16.352;2022-09-03T02:19:33;99741.59;;;24.46;37.97
43312;BME280;30041;48.300;16.352;2022-09-03T02:21:59;99741.84;;;24.44;38.14
43312;BME280;30041;48.300;16.352;2022-09-03T02:24:27;99750.81;;;24.45;37.86
43312;BME280;30041;48.300;16.352;2022-09-03T02:26:53;99751.63;;;24.45;37.99
43312;BME280;30041;48.300;16.352;2022-09-03T02:29:18;99748.91;;;24.45;38.03
43312;BME280;30041;48.300;16.352;2022-09-03T02:31:44;99750.81;;;24.45;38.12
43312;BME280;30041;48.300;16.352;2022-09-03T02:34:09;99741.03;;;24.44;38.15
43312;BME280;30041;48.300;16.352;2022-09-03T02:36:38;99740.78;;;24.45;38.15
43312;BME280;30041;48.300;16.352;2022-09-03T02:39:05;99744.81;;;24.43;37.90
43312;BME280;30041;48.300;16.352;2022-09-03T02:41:31;99741.84;;;24.44;37.97
43312;BME280;30041;48.300;16.352;2022-09-03T02:44:13;99750.81;;;24.45;37.93
43312;BME280;30041;48.300;16.352;2022-09-03T02:46:47;99749.16;;;24.44;37.91
43312;BME280;30041;48.300;16.352;2022-09-03T02:49:13;99753.75;;;24.43;37.85
43312;BME280;30041;48.300;16.352;2022-09-03T02:51:40;99752.94;;;24.43;38.03
43312;BME280;30041;48.300;16.352;2022-09-03T02:54:06;99750.25;;;24.43;37.69
43312;BME280;30041;48.300;16.352;2022-09-03T02:56:32;99746.69;;;24.42;38.16
43312;BME280;30041;48.300;16.352;2022-09-03T02:58:58;99741.28;;;24.42;38.05
43312;BME280;30041;48.300;16.352;2022-09-03T03:01:26;99743.75;;;24.44;37.83
43312;BME280;30041;48.300;16.352;2022-09-03T03:03:51;99740.78;;;24.45;37.74
43312;BME280;30041;48.300;16.352;2022-09-03T03:06:18;99735.59;;;24.44;37.93
43312;BME280;30041;48.300;16.352;2022-09-03T03:08:43;99734.00;;;24.43;37.62
43312;BME280;30041;48.300;16.352;2022-09-03T03:11:09;99747.53;;;24.43;37.74
43312;BME280;30041;48.300;16.352;2022-09-03T03:13:34;99738.84;;;24.41;37.96
43312;BME280;30041;48.300;16.352;2022-09-03T03:16:02;99743.16;;;24.42;38.06
43312;BME280;30041;48.300;16.352;2022-09-03T03:18:28;99740.47;;;24.42;37.91
43312;BME280;30041;48.300;16.352;2022-09-03T03:20:54;99733.16;;;24.42;37.98
43312;BME280;30041;48.300;16.352;2022-09-03T03:23:20;99735.03;;;24.42;37.62
43312;BME280;30041;48.300;16.352;2022-09-03T03:25:45;99728.00;;;24.41;37.98
43312;BME280;30041;48.300;16.352;2022-09-03T03:28:11;99733.16;;;24.42;37.78
43312;BME280;30041;48.300;16.352;2022-09-03T03:30:38;99729.63;;;24.42;37.85
43312;BME280;30041;48.300;16.352;2022-09-03T03:33:03;99737.75;;;24.42;37.69
43312;BME280;30041;48.300;16.352;2022-09-03T03:35:29;99738.84;;;24.41;37.69
43312;BME280;30041;48.300;16.352;2022-09-03T03:37:57;99737.19;;;24.40;37.98
43312;BME280;30041;48.300;16.352;2022-09-03T03:40:22;99724.22;;;24.42;37.97
43312;BME280;30041;48.300;16.352;2022-09-03T03:42:48;99726.91;;;24.42;37.57
43312;BME280;30041;48.300;16.352;2022-09-03T03:45:13;99733.66;;;24.39;38.00
43312;BME280;30041;48.300;16.352;2022-09-03T03:47:39;99735.31;;;24.40;37.80
43312;BME280;30041;48.300;16.352;2022-09-03T03:50:05;99734.47;;;24.40;37.80
43312;BME280;30041;48.300;16.352;2022-09-03T03:52:30;99738.28;;;24.39;37.82
43312;BME280;30041;48.300;16.352;2022-09-03T03:54:55;99737.19;;;24.40;37.85
43312;BME280;30041;48.300;16.352;2022-09-03T03:57:21;99743.44;;;24.40;37.72
43312;BME280;30041;48.300;16.352;2022-09-03T03:59:46;99742.59;;;24.40;37.49
43312;BME280;30041;48.300;16.352;2022-09-03T04:02:13;99742.59;;;24.40;37.47
43312;BME280;30041;48.300;16.352;2022-09-03T04:04:38;99749.91;;;24.39;37.95
43312;BME280;30041;48.300;16.352;2022-09-03T04:07:04;99747.47;;;24.38;37.78
43312;BME280;30041;48.300;16.352;2022-09-03T04:09:29;99746.66;;;24.37;37.73
43312;BME280;30041;48.300;16.352;2022-09-03T04:11:55;99745.59;;;24.38;37.45
43312;BME280;30041;48.300;16.352;2022-09-03T04:14:20;99746.41;;;24.39;37.46
43312;BME280;30041;48.300;16.352;2022-09-03T04:16:46;99751.00;;;24.38;37.51
43312;BME280;30041;48.300;16.352;2022-09-03T04:19:12;99750.16;;;24.38;37.36
43312;BME280;30041;48.300;16.352;2022-09-03T04:21:38;99750.44;;;24.36;37.66
43312;BME280;30041;48.300;16.352;2022-09-03T04:24:04;99752.88;;;24.38;37.48
43312;BME280;30041;48.300;16.352;2022-09-03T04:26:31;99747.47;;;24.38;37.58
43312;BME280;30041;48.300;16.352;2022-09-03T04:28:58;99750.44;;;24.36;37.68
43312;BME280;30041;48.300;16.352;2022-09-03T04:31:25;99749.13;;;24.39;37.53
43312;BME280;30041;48.300;16.352;2022-09-03T04:33:51;99757.22;;;24.39;37.31
43312;BME280;30041;48.300;16.352;2022-09-03T04:36:19;99758.06;;;24.39;37.50
43312;BME280;30041;48.300;16.352;2022-09-03T04:38:47;99753.72;;;24.38;37.37
43312;BME280;30041;48.300;16.352;2022-09-03T04:41:15;99748.88;;;24.40;37.69
43312;BME280;30041;48.300;16.352;2022-09-03T04:43:41;99755.91;;;24.41;37.78
43312;BME280;30041;48.300;16.352;2022-09-03T04:46:08;99751.56;;;24.40;37.52
43312;BME280;30041;48.300;16.352;2022-09-03T04:48:35;99745.88;;;24.42;37.52
43312;BME280;30041;48.300;16.352;2022-09-03T04:51:07;99747.53;;;24.43;37.54
43312;BME280;30041;48.300;16.352;2022-09-03T04:53:35;99748.91;;;24.45;37.48
43312;BME280;30041;48.300;16.352;2022-09-03T04:56:01;99758.66;;;24.47;37.42
43312;BME280;30041;48.300;16.352;2022-09-03T04:58:27;99764.09;;;24.47;37.47
43312;BME280;30041;48.300;16.352;2022-09-03T05:00:52;99765.97;;;24.46;37.69
43312;BME280;30041;48.300;16.352;2022-09-03T05:03:18;99761.38;;;24.47;37.82
43312;BME280;30041;48.300;16.352;2022-09-03T05:05:53;99769.03;;;24.50;37.55
43312;BME280;30041;48.300;16.352;2022-09-03T05:08:20;99759.00;;;24.50;37.44
43312;BME280;30041;48.300;16.352;2022-09-03T05:10:45;99761.72;;;24.50;37.38
43312;BME280;30041;48.300;16.352;2022-09-03T05:13:13;99759.81;;;24.51;37.40
43312;BME280;30041;48.300;16.352;2022-09-03T05:15:39;99760.91;;;24.50;37.97
43312;BME280;30041;48.300;16.352;2022-09-03T05:18:04;99763.63;;;24.50;37.65
43312;BME280;30041;48.300;16.352;2022-09-03T05:20:30;99757.94;;;24.51;37.50
43312;BME280;30041;48.300;16.352;2022-09-03T05:22:56;99759.81;;;24.51;37.80
43312;BME280;30041;48.300;16.352;2022-09-03T05:25:22;99759.59;;;24.52;37.66
43312;BME280;30041;48.300;16.352;2022-09-03T05:27:48;99764.19;;;24.52;37.68
43312;BME280;30041;48.300;16.352;2022-09-03T05:30:14;99766.91;;;24.52;37.84
43312;BME280;30041;48.300;16.352;2022-09-03T05:32:40;99772.03;;;24.53;37.64
43312;BME280;30041;48.300;16.352;2022-09-03T05:35:07;99768.28;;;24.54;37.76
43312;BME280;30041;48.300;16.352;2022-09-03T05:37:33;99767.19;;;24.55;37.45
43312;BME280;30041;48.300;16.352;2022-09-03T05:39:58;99767.19;;;24.55;37.80
43312;BME280;30041;48.300;16.352;2022-09-03T05:42:24;99767.47;;;24.54;37.63
43312;BME280;30041;48.300;16.352;2022-09-03T05:44:49;99763.41;;;24.56;37.51
43312;BME280;30041;48.300;16.352;2022-09-03T05:47:15;99766.94;;;24.57;37.62
43312;BME280;30041;48.300;16.352;2022-09-03T05:49:40;99761.75;;;24.55;37.70
43312;BME280;30041;48.300;16.352;2022-09-03T05:52:06;99765.03;;;24.57;37.52
43312;BME280;30041;48.300;16.352;2022-09-03T05:54:31;99756.91;;;24.57;37.68
43312;BME280;30041;48.300;16.352;2022-09-03T05:56:56;99760.44;;;24.58;37.91
43312;BME280;30041;48.300;16.352;2022-09-03T05:59:22;99760.44;;;24.58;38.01
43312;BME280;30041;48.300;16.352;2022-09-03T06:01:47;99768.31;;;24.59;37.84
43312;BME280;30041;48.300;16.352;2022-09-03T06:04:13;99763.91;;;24.53;37.90
43312;BME280;30041;48.300;16.352;2022-09-03T06:06:42;99763.22;;;24.19;38.38
43312;BME280;30041;48.300;16.352;2022-09-03T06:09:13;99765.41;;;24.00;38.65
43312;BME280;30041;48.300;16.352;2022-09-03T06:11:40;99771.34;;;23.97;39.37
43312;BME280;30041;48.300;16.352;2022-09-03T06:14:07;99765.53;;;23.88;39.53
43312;BME280;30041;48.300;16.352;2022-09-03T06:16:35;99762.72;;;23.78;39.21
43312;BME280;30041;48.300;16.352;2022-09-03T06:19:02;99764.78;;;23.54;39.85
43312;BME280;30041;48.300;16.352;2022-09-03T06:21:28;99764.63;;;23.44;39.86
43312;BME280;30041;48.300;16.352;2022-09-03T06:23:55;99762.66;;;23.39;39.91
43312;BME280;30041;48.300;16.352;2022-09-03T06:26:22;99763.41;;;23.34;41.06
43312;BME280;30041;48.300;16.352;2022-09-03T06:28:47;99764.88;;;23.25;40.37
43312;BME280;30041;48.300;16.352;2022-09-03T06:31:15;99759.81;;;23.29;40.51
43312;BME280;30041;48.300;16.352;2022-09-03T06:33:42;99761.59;;;23.23;40.52
43312;BME280;30041;48.300;16.352;2022-09-03T06:36:11;99763.00;;;23.09;40.73
43312;BME280;30041;48.300;16.352;2022-09-03T06:38:37;99765.03;;;23.18;41.33
43312;BME280;30041;48.300;16.352;2022-09-03T06:43:33;99768.16;;;23.27;42.36
43312;BME280;30041;48.300;16.352;2022-09-03T06:46:02;99769.47;;;23.25;41.30
43312;BME280;30041;48.300;16.352;2022-09-03T06:48:30;99775.69;;;23.25;42.99
43312;BME280;30041;48.300;16.352;2022-09-03T06:51:04;99764.06;;;23.08;41.91
43312;BME280;30041;48.300;16.352;2022-09-03T06:53:32;99760.31;;;23.09;41.26
43312;BME280;30041;48.300;16.352;2022-09-03T06:55:59;99762.75;;;23.10;41.97
43312;BME280;30041;48.300;16.352;2022-09-03T06:58:33;99762.75;;;23.10;42.04
43312;BME280;30041;48.300;16.352;2022-09-03T07:01:06;99763.31;;;23.12;42.00
43312;BME280;30041;48.300;16.352;2022-09-03T07:03:33;99760.94;;;23.16;42.37
43312;BME280;30041;48.300;16.352;2022-09-03T07:06:10;99762.75;;;23.10;41.87
43312;BME280;30041;48.300;16.352;2022-09-03T07:08:36;99757.59;;;23.09;42.48
43312;BME280;30041;48.300;16.352;2022-09-03T07:11:06;99760.47;;;23.02;42.15
43312;BME280;30041;48.300;16.352;2022-09-03T07:13:32;99765.38;;;23.05;43.01
43312;BME280;30041;48.300;16.352;2022-09-03T07:15:59;99776.91;;;23.00;41.95
43312;BME280;30041;48.300;16.352;2022-09-03T07:18:25;99781.38;;;22.95;42.09
43312;BME280;30041;48.300;16.352;2022-09-03T07:20:50;99773.59;;;22.98;42.77
43312;BME280;30041;48.300;16.352;2022-09-03T07:23:16;99768.25;;;23.15;43.04
43312;BME280;30041;48.300;16.352;2022-09-03T07:25:41;99772.41;;;23.23;42.53
43312;BME280;30041;48.300;16.352;2022-09-03T07:28:06;99767.34;;;23.27;42.25
43312;BME280;30041;48.300;16.352;2022-09-03T07:30:32;99765.69;;;23.26;42.64
43312;BME280;30041;48.300;16.352;2022-09-03T07:32:57;99762.41;;;23.24;42.14
43312;BME280;30041;48.300;16.352;2022-09-03T07:35:23;99773.06;;;23.30;42.46
43312;BME280;30041;48.300;16.352;2022-09-03T07:37:48;99771.91;;;23.26;42.72
43312;BME280;30041;48.300;16.352;2022-09-03T07:40:14;99775.53;;;23.32;42.59
43312;BME280;30041;48.300;16.352;2022-09-03T07:42:39;99776.53;;;23.42;42.15
43312;BME280;30041;48.300;16.352;2022-09-03T07:45:08;99769.78;;;23.45;42.16
43312;BME280;30041;48.300;16.352;2022-09-03T07:47:33;99774.38;;;23.45;42.24
43312;BME280;30041;48.300;16.352;2022-09-03T07:49:59;99763.81;;;23.43;42.50
43312;BME280;30041;48.300;16.352;2022-09-03T07:52:24;99764.69;;;23.49;42.54
43312;BME280;30041;48.300;16.352;2022-09-03T07:54:49;99765.53;;;23.49;42.69
43312;BME280;30041;48.300;16.352;2022-09-03T07:57:15;99764.78;;;23.54;42.60
43312;BME280;30041;48.300;16.352;2022-09-03T07:59:40;99763.41;;;23.51;42.59
43312;BME280;30041;48.300;16.352;2022-09-03T08:02:06;99754.78;;;23.37;42.46
43312;BME280;30041;48.300;16.352;2022-09-03T08:04:31;99762.59;;;23.34;42.45
43312;BME280;30041;48.300;16.352;2022-09-03T08:06:57;99752.59;;;23.34;42.99
43312;BME280;30041;48.300;16.352;2022-09-03T08:09:22;99758.63;;;23.41;42.96
43312;BME280;30041;48.300;16.352;2022-09-03T08:11:47;99762.91;;;23.37;43.03
43312;BME280;30041;48.300;16.352;2022-09-03T08:14:13;99759.13;;;23.38;43.16
43312;BME280;30041;48.300;16.352;2022-09-03T08:16:41;99757.81;;;23.41;42.96
43312;BME280;30041;48.300;16.352;2022-09-03T08:19:09;99754.88;;;23.42;43.04
43312;BME280;30041;48.300;16.352;2022-09-03T08:21:35;99757.06;;;23.46;43.22
43312;BME280;30041;48.300;16.352;2022-09-03T08:24:01;99755.13;;;23.41;43.23
43312;BME280;30041;48.300;16.352;2022-09-03T08:26:26;99752.81;;;23.33;43.40
43312;BME280;30041;48.300;16.352;2022-09-03T08:28:52;99761.28;;;23.36;43.37
43312;BME280;30041;48.300;16.352;2022-09-03T08:31:19;99761.91;;;23.44;43.49
43312;BME280;30041;48.300;16.352;2022-09-03T08:33:48;99755.84;;;23.36;43.41
43312;BME280;30041;48.300;16.352;2022-09-03T08:36:19;99767.00;;;23.23;44.00
43312;BME280;30041;48.300;16.352;2022-09-03T08:38:45;99756.69;;;23.20;44.25
43312;BME280;30041;48.300;16.352;2022-09-03T08:41:12;99748.00;;;23.18;44.10
43312;BME280;30041;48.300;16.352;2022-09-03T08:49:23;99742.34;;;23.36;43.18
43312;BME280;30041;48.300;16.352;2022-09-03T08:51:52;99737.50;;;23.38;42.98
43312;BME280;30041;48.300;16.352;2022-09-03T08:54:21;99729.97;;;23.40;43.28
43312;BME280;30041;48.300;16.352;2022-09-03T08:56:48;99738.00;;;23.35;43.41
43312;BME280;30041;48.300;16.352;2022-09-03T08:59:14;99744.06;;;23.26;43.66
43312;BME280;30041;48.300;16.352;2022-09-03T09:01:51;99739.22;;;23.28;43.70
43312;BME280;30041;48.300;16.352;2022-09-03T09:04:40;99741.69;;;23.12;44.21
43312;BME280;30041;48.300;16.352;2022-09-03T09:07:23;99745.13;;;23.08;44.36
43312;BME280;30041;48.300;16.352;2022-09-03T09:10:15;99743.59;;;23.12;44.24
43312;BME280;30041;48.300;16.352;2022-09-03T09:18:05;99749.63;;;23.19;44.08
43312;BME280;30041;48.300;16.352;2022-09-03T09:21:10;99740.63;;;23.13;44.37
43312;BME280;30041;48.300;16.352;2022-09-03T09:23:45;99741.22;;;23.15;44.42
43312;BME280;30041;48.300;16.352;2022-09-03T09:26:17;99725.00;;;23.15;44.21
43312;BME280;30041;48.300;16.352;2022-09-03T09:28:54;99719.50;;;23.27;43.67
43312;BME280;30041;48.300;16.352;2022-09-03T09:31:22;99722.75;;;23.29;43.86
43312;BME280;30041;48.300;16.352;2022-09-03T09:33:47;99719.66;;;23.20;43.87
43312;BME280;30041;48.300;16.352;2022-09-03T09:36:16;99723.34;;;23.14;44.33
43312;BME280;30041;48.300;16.352;2022-09-03T09:38:42;99724.72;;;23.17;44.23
43312;BME280;30041;48.300;16.352;2022-09-03T09:41:17;99717.69;;;23.16;43.90
43312;BME280;30041;48.300;16.352;2022-09-03T09:43:44;99718.44;;;23.11;44.20
43312;BME280;30041;48.300;16.352;2022-09-03T09:46:18;99721.38;;;23.10;44.25
43312;BME280;30041;48.300;16.352;2022-09-03T09:48:55;99715.97;;;23.10;44.30
43312;BME280;30041;48.300;16.352;2022-09-03T09:51:27;99720.34;;;23.11;44.37
43312;BME280;30041;48.300;16.352;2022-09-03T09:54:24;99714.34;;;23.09;44.48
43312;BME280;30041;48.300;16.352;2022-09-03T09:56:59;99721.94;;;23.12;44.38
43312;BME280;30041;48.300;16.352;2022-09-03T09:59:25;99720.41;;;23.16;44.31
43312;BME280;30041;48.300;16.352;2022-09-03T10:01:50;99714.19;;;23.15;44.38
43312;BME280;30041;48.300;16.352;2022-09-03T10:04:24;99709.00;;;23.14;44.42
43312;BME280;30041;48.300;16.352;2022-09-03T10:07:04;99704.13;;;23.11;44.24
43312;BME280;30041;48.300;16.352;2022-09-03T10:09:32;99700.31;;;23.12;44.20
43312;BME280;30041;48.300;16.352;2022-09-03T10:14:41;99703.03;;;23.12;44.41
43312;BME280;30041;48.300;16.352;2022-09-03T10:17:20;99707.06;;;23.09;44.58
43312;BME280;30041;48.300;16.352;2022-09-03T10:20:09;99708.09;;;23.08;44.50
43312;BME280;30041;48.300;16.352;2022-09-03T10:22:40;99708.69;;;23.10;44.50
43312;BME280;30041;48.300;16.352;2022-09-03T10:25:08;99710.41;;;23.16;44.27
43312;BME280;30041;48.300;16.352;2022-09-03T10:27:34;99709.81;;;23.14;44.36
43312;BME280;30041;48.300;16.352;2022-09-03T10:30:00;99712.28;;;23.16;44.46
43312;BME280;30041;48.300;16.352;2022-09-03T10:35:31;99709.00;;;23.14;44.71
43312;BME280;30041;48.300;16.352;2022-09-03T10:40:35;99698.19;;;23.14;44.54
43312;BME280;30041;48.300;16.352;2022-09-03T10:43:26;99704.66;;;23.13;44.81
43312;BME280;30041;48.300;16.352;2022-09-03T10:51:30;99692.38;;;23.22;44.52
43312;BME280;30041;48.300;16.352;2022-09-03T10:59:15;99685.81;;;23.18;44.39
43312;BME280;30041;48.300;16.352;2022-09-03T11:02:37;99693.94;;;23.18;44.78
43312;BME280;30041;48.300;16.352;2022-09-03T11:07:34;99695.56;;;23.19;44.72
43312;BME280;30041;48.300;16.352;2022-09-03T11:10:27;99692.13;;;23.24;44.55
43312;BME280;30041;48.300;16.352;2022-09-03T11:13:11;99685.31;;;23.21;44.63
43312;BME280;30041;48.300;16.352;2022-09-03T11:15:44;99684.19;;;23.17;44.78
43312;BME280;30041;48.300;16.352;2022-09-03T11:18:28;99682.56;;;23.16;44.72
43312;BME280;30041;48.300;16.352;2022-09-03T11:20:58;99680.16;;;23.19;44.60
43312;BME280;30041;48.300;16.352;2022-09-03T11:23:27;99678.53;;;23.18;44.83
43312;BME280;30041;48.300;16.352;2022-09-03T11:25:57;99675.31;;;23.21;44.66
43312;BME280;30041;48.300;16.352;2022-09-03T11:33:45;99665.00;;;23.18;44.88
43312;BME280;30041;48.300;16.352;2022-09-03T11:36:12;99667.47;;;23.20;44.74
43312;BME280;30041;48.300;16.352;2022-09-03T11:38:37;99670.41;;;23.18;44.92
43312;BME280;30041;48.300;16.352;2022-09-03T11:41:11;99662.66;;;23.22;44.77
43312;BME280;30041;48.300;16.352;2022-09-03T11:43:38;99675.06;;;23.23;44.91
43312;BME280;30041;48.300;16.352;2022-09-03T11:48:54;99677.53;;;23.25;44.51
43312;BME280;30041;48.300;16.352;2022-09-03T11:53:56;99669.66;;;23.23;44.95
43312;BME280;30041;48.300;16.352;2022-09-03T11:56:22;99665.88;;;23.24;44.74
43312;BME280;30041;48.300;16.352;2022-09-03T12:04:43;99661.81;;;23.21;44.68
43312;BME280;30041;48.300;16.352;2022-09-03T12:07:43;99660.75;;;23.23;44.69
43312;BME280;30041;48.300;16.352;2022-09-03T12:10:18;99665.06;;;23.24;44.76
43312;BME280;30041;48.300;16.352;2022-09-03T12:13:08;99668.13;;;23.27;44.68
43312;BME280;30041;48.300;16.352;2022-09-03T12:15:52;99665.41;;;23.27;45.06
43312;BME280;30041;48.300;16.352;2022-09-03T12:18:25;99667.03;;;23.28;44.54
43312;BME280;30041;48.300;16.352;2022-09-03T12:23:44;99668.69;;;23.29;44.91
43312;BME280;30041;48.300;16.352;2022-09-03T12:26:27;99665.41;;;23.27;44.81
43312;BME280;30041;48.300;16.352;2022-09-03T12:28:55;99667.03;;;23.28;44.81
43312;BME280;30041;48.300;16.352;2022-09-03T12:31:23;99661.38;;;23.30;44.71
43312;BME280;30041;48.300;16.352;2022-09-03T12:34:08;99666.84;;;23.35;44.58
43312;BME280;30041;48.300;16.352;2022-09-03T12:36:40;99662.81;;;23.37;44.48
43312;BME280;30041;48.300;16.352;2022-09-03T12:39:17;99650.63;;;23.35;44.61
43312;BME280;30041;48.300;16.352;2022-09-03T12:41:58;99651.47;;;23.35;44.37
43312;BME280;30041;48.300;16.352;2022-09-03T12:44:29;99652.34;;;23.41;44.52
43312;BME280;30041;48.300;16.352;2022-09-03T12:49:37;99643.66;;;23.39;44.48
43312;BME280;30041;48.300;16.352;2022-09-03T12:52:19;99644.75;;;23.38;44.72
43312;BME280;30041;48.300;16.352;2022-09-03T12:54:53;99650.38;;;23.36;44.86
43312;BME280;30041;48.300;16.352;2022-09-03T12:57:24;99641.47;;;23.36;44.60
43312;BME280;30041;48.300;16.352;2022-09-03T12:59:54;99649.81;;;23.34;44.62
43312;BME280;30041;48.300;16.352;2022-09-03T13:02:27;99640.66;;;23.35;44.61
43312;BME280;30041;48.300;16.352;2022-09-03T13:04:54;99640.38;;;23.37;44.52
43312;BME280;30041;48.300;16.352;2022-09-03T13:07:30;99633.34;;;23.36;44.84
43312;BME280;30041;48.300;16.352;2022-09-03T13:10:02;99637.69;;;23.37;44.41
43312;BME280;30041;48.300;16.352;2022-09-03T13:12:31;99634.22;;;23.41;44.53
43312;BME280;30041;48.300;16.352;2022-09-03T13:15:05;99636.34;;;23.39;44.72
43312;BME280;30041;48.300;16.352;2022-09-03T13:20:29;99628.81;;;23.41;44.64
43312;BME280;30041;48.300;16.352;2022-09-03T13:31:50;99614.81;;;23.45;44.29
43312;BME280;30041;48.300;16.352;2022-09-03T13:34:34;99611.25;;;23.44;44.50
43312;BME280;30041;48.300;16.352;2022-09-03T13:39:56;99614.22;;;23.42;44.60
43312;BME280;30041;48.300;16.352;2022-09-03T13:42:26;99608.00;;;23.42;44.66
43312;BME280;30041;48.300;16.352;2022-09-03T13:45:04;99603.16;;;23.44;44.46
43312;BME280;30041;48.300;16.352;2022-09-03T13:47:47;99604.56;;;23.47;44.41
43312;BME280;30041;48.300;16.352;2022-09-03T13:50:20;99602.91;;;23.46;44.38
43312;BME280;30041;48.300;16.352;2022-09-03T13:53:06;99607.75;;;23.44;44.23
43312;BME280;30041;48.300;16.352;2022-09-03T13:55:45;99604.47;;;23.41;44.32
43312;BME280;30041;48.300;16.352;2022-09-03T13:58:27;99602.28;;;23.38;44.59
43312;BME280;30041;48.300;16.352;2022-09-03T14:03:30;99602.28;;;23.38;44.81
43312;BME280;30041;48.300;16.352;2022-09-03T14:15:01;99594.72;;;23.40;44.30
43312;BME280;30041;48.300;16.352;2022-09-03T14:17:58;99586.38;;;23.42;44.49
43312;BME280;30041;48.300;16.352;2022-09-03T14:20:32;99588.81;;;23.44;44.45
43312;BME280;30041;48.300;16.352;2022-09-03T14:25:59;99593.41;;;23.43;44.36
43312;BME280;30041;48.300;16.352;2022-09-03T14:28:35;99585.88;;;23.45;44.22
43312;BME280;30041;48.300;16.352;2022-09-03T14:31:09;99592.09;;;23.46;44.65
43312;BME280;30041;48.300;16.352;2022-09-03T14:33:38;99601.00;;;23.46;44.64
43312;BME280;30041;48.300;16.352;2022-09-03T14:39:46;99595.03;;;23.44;44.44
43312;BME280;30041;48.300;16.352;2022-09-03T14:45:11;99588.25;;;23.41;44.43
43312;BME280;30041;48.300;16.352;2022-09-03T14:47:45;99582.34;;;23.45;44.76
43312;BME280;30041;48.300;16.352;2022-09-03T14:50:33;99582.59;;;23.43;44.33
43312;BME280;30041;48.300;16.352;2022-09-03T14:56:06;99582.41;;;23.50;44.63
43312;BME280;30041;48.300;16.352;2022-09-03T15:01:20;99591.28;;;23.45;44.30
43312;BME280;30041;48.300;16.352;2022-09-03T15:12:04;99588.06;;;23.48;44.55
43312;BME280;30041;48.300;16.352;2022-09-03T15:14:48;99587.75;;;23.45;44.50
43312;BME280;30041;48.300;16.352;2022-09-03T15:17:26;99591.03;;;23.47;44.38
43312;BME280;30041;48.300;16.352;2022-09-03T15:22:54;99582.41;;;23.50;44.69
43312;BME280;30041;48.300;16.352;2022-09-03T15:36:20;99584.78;;;23.46;44.74
43312;BME280;30041;48.300;16.352;2022-09-03T15:44:13;99582.84;;;23.41;44.63
43312;BME280;30041;48.300;16.352;2022-09-03T15:47:04;99578.81;;;23.44;44.65
43312;BME280;30041;48.300;16.352;2022-09-03T15:49:54;99577.50;;;23.47;44.38
43312;BME280;30041;48.300;16.352;2022-09-03T15:55:41;99572.91;;;23.47;44.78
43312;BME280;30041;48.300;16.352;2022-09-03T15:58:20;99572.91;;;23.47;44.41